Time;durP1;ratioP1;P1;durP2;ratioP2;P2;SDS_P1;SDS_P2;PMS_P1;PMS_P2;Temp;Humidity;BMP_temperature;BMP_pressure;BME280_temperature;BME280_humidity;BME280_pressure;Samples;Min_cycle;Max_cycle;Signal;HPM_P1;HPM_P2
2022/06/19 09:36:38;;;;;;;22.38;4.22;;;37.70;21.30;;;;;;6149561;28;20165;-76
2022/06/19 09:39:50;;;;;;;19.27;3.63;;;37.70;21.10;;;;;;6153039;28;20031;-76
2022/06/19 09:43:14;;;;;;;19.65;3.25;;;37.70;21.20;;;;;;6174588;28;20109;-76
2022/06/19 09:46:25;;;;;;;20.95;3.33;;;37.80;21.10;;;;;;6148613;28;20031;-76
2022/06/19 09:50:03;;;;;;;14.82;3.80;;;37.80;20.90;;;;;;6170914;28;20015;-77
2022/06/19 09:53:16;;;;;;;16.65;3.63;;;37.80;20.80;;;;;;6174532;28;20355;-77
2022/06/19 09:56:20;;;;;;;14.90;4.03;;;37.90;20.70;;;;;;6174388;28;20030;-76
2022/06/19 09:59:34;;;;;;;12.45;3.35;;;37.90;20.70;;;;;;6173840;28;20363;-72
2022/06/19 10:03:03;;;;;;;24.55;3.33;;;38.00;20.50;;;;;;6174798;28;20023;-72
2022/06/19 10:06:09;;;;;;;25.60;4.13;;;38.00;20.60;;;;;;6170008;28;20413;-72
2022/06/19 10:09:36;;;;;;;14.35;3.38;;;38.00;20.30;;;;;;6175497;28;20447;-73
2022/06/19 10:12:44;;;;;;;19.73;3.70;;;37.90;20.40;;;;;;6172667;28;20126;-75
2022/06/19 10:15:46;;;;;;;;;;;38.10;20.50;;;;;;6174542;28;20514;-76
2022/06/19 10:18:51;;;;;;;13.15;3.30;;;38.20;20.40;;;;;;6173920;28;19918;-75
2022/06/19 10:22:23;;;;;;;18.55;3.95;;;38.20;20.30;;;;;;6172364;28;20027;-74
2022/06/19 10:25:46;;;;;;;18.50;3.25;;;38.20;20.10;;;;;;6177415;28;20026;-74
2022/06/19 10:29:13;;;;;;;24.17;3.50;;;38.20;20.00;;;;;;6175993;28;20077;-74
2022/06/19 10:32:32;;;;;;;11.63;3.38;;;38.20;19.90;;;;;;6159968;28;20360;-75
2022/06/19 10:35:42;;;;;;;13.95;3.70;;;38.30;20.10;;;;;;6173609;28;20039;-75
2022/06/19 10:38:59;;;;;;;19.10;3.65;;;38.40;20.30;;;;;;6175481;28;20086;-74
2022/06/19 10:42:34;;;;;;;21.23;4.07;;;38.40;20.20;;;;;;6159741;28;20039;-75
2022/06/19 10:45:46;;;;;;;18.13;3.88;;;38.50;20.00;;;;;;6176392;28;20415;-74
2022/06/19 10:49:20;;;;;;;12.73;3.30;;;38.70;19.80;;;;;;6175308;28;20408;-75
2022/06/19 10:52:25;;;;;;;7.28;3.22;;;38.70;19.60;;;;;;6156478;28;20031;-75
2022/06/19 10:56:05;;;;;;;17.42;3.28;;;38.70;19.50;;;;;;6155744;28;20041;-76
2022/06/19 10:59:07;;;;;;;11.10;3.38;;;38.70;19.50;;;;;;6176480;28;20039;-75
2022/06/19 11:06:14;;;;;;;20.95;3.58;;;38.80;19.20;;;;;;6172871;28;20317;-75
2022/06/19 11:09:24;;;;;;;19.90;3.95;;;39.30;19.00;;;;;;6160015;28;20037;-75
2022/06/19 11:12:56;;;;;;;13.02;3.00;;;40.10;18.30;;;;;;6141343;28;20478;-75
2022/06/19 11:20:28;;;;;;;15.65;3.45;;;41.40;17.50;;;;;;6177592;28;20432;-75
2022/06/19 11:23:40;;;;;;;18.23;3.75;;;42.10;17.10;;;;;;6140874;28;20027;-75
2022/06/19 11:26:45;;;;;;;15.35;3.30;;;42.50;16.80;;;;;;6175254;28;20046;-75
2022/06/19 11:29:49;;;;;;;12.60;3.35;;;42.70;16.50;;;;;;6177956;28;20042;-74
2022/06/19 11:32:50;;;;;;;17.63;3.70;;;43.10;16.50;;;;;;6176279;28;20027;-75
2022/06/19 11:35:55;;;;;;;10.73;3.05;;;43.50;16.20;;;;;;6172912;28;20039;-75
2022/06/19 11:38:57;;;;;;;15.90;3.08;;;43.60;16.00;;;;;;6172552;28;20035;-74
2022/06/19 11:41:58;;;;;;;14.55;2.90;;;43.70;15.90;;;;;;6158103;28;20034;-74
2022/06/19 11:45:05;;;;;;;10.40;3.40;;;43.90;15.90;;;;;;6159323;28;20026;-74
2022/06/19 11:48:11;;;;;;;;;;;44.00;15.70;;;;;;6158000;28;20047;-75
2022/06/19 11:51:18;;;;;;;15.63;3.38;;;44.20;15.60;;;;;;6160042;28;20005;-74
2022/06/19 11:54:25;;;;;;;12.50;3.53;;;44.30;15.40;;;;;;6160959;28;20135;-76
2022/06/19 11:57:31;;;;;;;11.77;3.20;;;44.20;15.20;;;;;;6153546;28;20348;-75
2022/06/19 12:00:35;;;;;;;9.65;2.63;;;44.10;15.20;;;;;;6176532;28;20046;-75
2022/06/19 12:03:58;;;;;;;17.50;3.60;;;44.10;15.20;;;;;;6177110;28;20035;-75
2022/06/19 12:07:03;;;;;;;17.60;3.10;;;44.00;15.40;;;;;;6159038;28;20125;-76
2022/06/19 12:10:13;;;;;;;15.27;2.92;;;44.10;15.40;;;;;;6177033;28;20030;-76
2022/06/19 12:13:22;;;;;;;13.88;3.05;;;44.30;15.30;;;;;;6176858;28;20356;-76
2022/06/19 12:16:24;;;;;;;8.18;2.42;;;44.30;15.10;;;;;;6176265;28;20403;-76
2022/06/19 12:19:30;;;;;;;8.73;3.10;;;44.50;15.10;;;;;;6159501;28;20105;-76
2022/06/19 12:22:51;;;;;;;14.20;3.13;;;44.70;14.80;;;;;;6176723;28;20034;-75
2022/06/19 12:26:02;;;;;;;16.10;2.85;;;44.70;14.60;;;;;;6144593;28;20035;-76
2022/06/19 12:29:53;;;;;;;18.67;3.35;;;44.80;14.80;;;;;;6176187;28;20033;-76
2022/06/19 12:32:56;;;;;;;18.05;3.42;;;44.90;14.60;;;;;;6096058;29;20040;-75
2022/06/19 12:35:59;;;;;;;14.13;3.28;;;45.10;14.80;;;;;;6086665;29;20123;-76
2022/06/19 12:39:02;;;;;;;10.23;3.10;;;45.10;14.90;;;;;;6102442;29;20040;-75
2022/06/19 12:42:21;;;;;;;13.80;3.95;;;45.10;15.00;;;;;;6089377;29;20063;-76
2022/06/19 12:45:40;;;;;;;11.30;3.30;;;45.10;14.90;;;;;;6102762;29;20074;-75
2022/06/19 12:48:41;;;;;;;10.25;3.05;;;45.00;15.00;;;;;;6099397;29;20043;-74
2022/06/19 12:51:44;;;;;;;15.25;4.00;;;45.10;15.00;;;;;;6090572;29;20059;-76
2022/06/19 12:55:16;;;;;;;10.80;2.92;;;45.10;14.80;;;;;;6086796;29;20032;-75
2022/06/19 12:58:36;;;;;;;17.38;3.17;;;45.10;14.90;;;;;;6101410;29;20039;-74
2022/06/19 13:01:58;;;;;;;10.25;3.75;;;45.10;14.70;;;;;;6089687;29;20044;-75
2022/06/19 13:05:23;;;;;;;17.88;3.60;;;45.00;14.70;;;;;;6102485;29;20164;-75
2022/06/19 13:08:47;;;;;;;13.50;3.40;;;45.10;14.60;;;;;;6117820;28;20384;-74
2022/06/19 13:12:12;;;;;;;15.68;3.80;;;45.50;14.60;;;;;;6168549;28;20038;-74
2022/06/19 13:15:23;;;;;;;9.75;3.75;;;45.90;14.50;;;;;;6169930;28;20511;-75
2022/06/19 13:18:35;;;;;;;9.93;3.20;;;46.40;14.20;;;;;;6175851;28;20027;-71
2022/06/19 13:21:58;;;;;;;16.85;3.60;;;46.60;14.10;;;;;;6175534;28;20051;-70
2022/06/19 13:25:14;;;;;;;14.63;3.67;;;46.80;14.10;;;;;;6158734;28;20037;-71
2022/06/19 13:28:37;;;;;;;14.32;3.60;;;46.80;14.20;;;;;;6175780;28;20038;-70
2022/06/19 13:31:48;;;;;;;10.32;3.58;;;47.00;14.00;;;;;;6152653;28;20485;-70
2022/06/19 13:35:10;;;;;;;10.48;3.75;;;47.20;13.80;;;;;;6159548;28;20046;-70
2022/06/19 13:38:36;;;;;;;6.63;2.97;;;47.40;13.80;;;;;;6165537;28;20105;-71
2022/06/19 13:42:06;;;;;;;10.93;3.67;;;47.70;13.70;;;;;;6158518;28;20023;-71
2022/06/19 13:45:31;;;;;;;17.50;4.22;;;48.00;13.60;;;;;;6180191;28;20125;-71
2022/06/19 13:48:40;;;;;;;13.02;3.72;;;48.30;13.70;;;;;;6172180;28;20043;-71
2022/06/19 13:52:02;;;;;;;9.25;3.38;;;48.60;13.40;;;;;;6160590;28;20465;-72
2022/06/19 13:55:20;;;;;;;14.40;3.63;;;49.00;13.30;;;;;;6156500;28;20030;-70
2022/06/19 13:58:58;;;;;;;15.63;3.70;;;49.20;13.10;;;;;;6175060;28;20452;-70
2022/06/19 14:02:08;;;;;;;15.85;3.47;;;49.50;13.10;;;;;;6158717;28;20023;-70
2022/06/19 14:05:15;;;;;;;11.23;3.63;;;50.10;12.80;;;;;;6177055;28;20448;-72
2022/06/19 14:08:49;;;;;;;14.45;4.15;;;50.30;12.70;;;;;;6176386;28;20494;-72
2022/06/19 14:12:04;;;;;;;11.57;3.10;;;50.40;12.70;;;;;;6158937;28;20521;-71
2022/06/19 14:15:30;;;;;;;8.35;2.92;;;50.50;12.60;;;;;;6151785;28;20483;-71
2022/06/19 14:18:52;;;;;;;15.85;4.20;;;51.00;12.50;;;;;;6174405;28;20085;-70
2022/06/19 14:22:07;;;;;;;13.55;3.75;;;51.20;12.20;;;;;;6175862;28;20026;-71
2022/06/19 14:25:30;;;;;;;6.10;2.95;;;51.30;12.20;;;;;;6172929;28;20038;-71
2022/06/19 14:29:22;;;;;;;17.00;3.28;;;51.30;12.10;;;;;;6158460;28;20045;-70
2022/06/19 14:32:52;;;;;;;8.82;3.53;;;51.10;12.20;;;;;;6080392;29;20032;-72
2022/06/19 14:36:23;;;;;;;10.90;3.33;;;50.70;12.20;;;;;;6080176;29;20054;-69
2022/06/19 14:39:23;;;;;;;17.90;3.22;;;50.40;12.30;;;;;;6079298;29;20458;-71
2022/06/19 14:42:25;;;;;;;11.40;3.03;;;50.30;12.20;;;;;;6079049;29;20088;-71
2022/06/19 14:45:35;;;;;;;8.65;3.13;;;50.20;12.30;;;;;;6080377;29;20115;-71
2022/06/19 14:48:48;;;;;;;9.52;3.30;;;50.30;12.20;;;;;;6078794;29;20458;-73
2022/06/19 14:51:58;;;;;;;20.73;3.60;;;50.00;12.30;;;;;;6078699;29;20623;-73
2022/06/19 14:55:16;;;;;;;15.18;3.55;;;50.10;12.50;;;;;;6080511;29;20111;-71
2022/06/19 14:58:25;;;;;;;13.85;3.20;;;50.40;12.30;;;;;;6080752;29;20032;-71
2022/06/19 15:01:30;;;;;;;8.30;3.13;;;50.40;12.30;;;;;;6081461;29;20044;-71
2022/06/19 15:04:35;;;;;;;9.20;3.50;;;50.40;12.30;;;;;;6079852;29;20188;-71
2022/06/19 15:07:43;;;;;;;16.27;3.65;;;50.50;12.30;;;;;;6157050;28;20035;-70
2022/06/19 15:11:22;;;;;;;11.60;2.90;;;50.40;12.30;;;;;;6175979;28;20078;-71
2022/06/19 15:14:27;;;;;;;14.25;3.97;;;50.20;12.40;;;;;;6175705;28;20026;-71
2022/06/19 15:17:38;;;;;;;15.27;3.47;;;50.00;12.50;;;;;;6157458;28;20045;-70
2022/06/19 15:21:06;;;;;;;9.65;3.10;;;49.80;12.80;;;;;;6159887;28;20061;-71
2022/06/19 15:24:19;;;;;;;8.95;3.13;;;49.60;12.70;;;;;;6169901;28;20054;-70
2022/06/19 15:27:23;;;;;;;9.65;2.90;;;49.40;12.60;;;;;;6173805;28;20054;-69
2022/06/19 15:30:39;;;;;;;8.55;3.33;;;49.20;12.70;;;;;;6174920;28;20050;-70
2022/06/19 15:33:47;;;;;;;7.10;3.17;;;48.70;12.90;;;;;;6173816;28;20027;-69
2022/06/19 15:36:51;;;;;;;12.95;3.60;;;48.50;13.10;;;;;;6170512;28;20062;-69
2022/06/19 15:40:22;;;;;;;15.07;3.60;;;48.40;13.10;;;;;;6153872;28;20483;-69
2022/06/19 15:43:23;;;;;;;17.58;3.03;;;48.50;13.00;;;;;;6171723;28;20117;-71
2022/06/19 15:46:26;;;;;;;16.80;3.17;;;48.40;13.00;;;;;;6170199;28;20030;-69
2022/06/19 15:49:27;;;;;;;15.43;3.80;;;48.30;13.10;;;;;;6157763;28;20047;-74
2022/06/19 15:52:44;;;;;;;11.13;3.30;;;48.10;13.20;;;;;;6173492;28;20030;-74
2022/06/19 15:55:49;;;;;;;8.93;2.70;;;47.90;13.40;;;;;;6175296;28;20027;-74
2022/06/19 15:58:55;;;;;;;8.43;4.07;;;47.80;13.40;;;;;;6173372;28;20023;-74
2022/06/19 16:01:59;;;;;;;8.18;3.20;;;47.90;13.40;;;;;;6173023;28;20133;-74
2022/06/19 16:05:06;;;;;;;15.20;3.30;;;47.90;13.40;;;;;;6174560;28;20125;-70
2022/06/19 16:08:18;;;;;;;22.90;3.72;;;47.80;13.30;;;;;;6156028;28;20174;-71
2022/06/19 16:11:31;;;;;;;14.38;3.47;;;47.70;13.50;;;;;;6153731;28;20034;-71
2022/06/19 16:14:36;;;;;;;16.42;3.00;;;47.50;13.50;;;;;;6171352;28;20470;-68
2022/06/19 16:17:37;;;;;;;10.40;2.92;;;47.40;13.60;;;;;;6172782;28;20031;-71
2022/06/19 16:20:38;;;;;;;11.82;3.38;;;47.30;13.70;;;;;;6157895;28;20408;-70
2022/06/19 16:23:44;;;;;;;20.58;3.50;;;47.20;13.70;;;;;;6156489;28;20066;-70
2022/06/19 16:26:55;;;;;;;15.73;3.47;;;47.10;13.60;;;;;;6156281;28;20110;-70
2022/06/19 16:30:01;;;;;;;7.10;3.30;;;47.00;13.70;;;;;;6173744;28;20039;-70
2022/06/19 16:33:03;;;;;;;14.75;3.55;;;46.90;13.70;;;;;;6157112;28;20035;-71
2022/06/19 16:46:10;;;;;;;13.90;3.30;;;46.20;14.10;;;;;;6171597;28;20045;-71
2022/06/19 16:49:25;;;;;;;10.23;2.67;;;45.90;14.20;;;;;;6172072;28;20444;-71
2022/06/19 16:52:26;;;;;;;13.45;3.28;;;45.90;14.30;;;;;;6171874;28;20101;-71
2022/06/19 16:55:37;;;;;;;11.85;3.28;;;45.80;14.20;;;;;;6173334;28;20420;-71
2022/06/19 16:58:46;;;;;;;14.23;3.20;;;45.70;14.40;;;;;;6173515;28;20019;-70
2022/06/19 17:01:48;;;;;;;9.32;3.22;;;45.30;14.50;;;;;;6157010;28;20031;-71
2022/06/19 17:04:51;;;;;;;10.63;3.30;;;44.50;14.90;;;;;;6173611;28;20343;-72
2022/06/19 17:11:19;;;;;;;12.40;2.90;;;42.90;15.90;;;;;;6154234;28;20035;-71
2022/06/19 17:14:27;;;;;;;9.85;3.55;;;42.20;16.40;;;;;;6168223;28;20019;-70
2022/06/19 17:17:41;;;;;;;12.13;3.15;;;41.80;16.70;;;;;;6140360;28;20030;-70
2022/06/19 17:20:42;;;;;;;13.65;3.22;;;41.40;17.00;;;;;;6170635;28;20049;-70
2022/06/19 17:24:15;;;;;;;11.38;3.00;;;41.00;17.20;;;;;;6153494;28;20023;-70
2022/06/19 17:27:22;;;;;;;9.15;2.72;;;40.60;17.60;;;;;;6170106;28;20049;-70
2022/06/19 17:30:26;;;;;;;18.23;4.13;;;40.20;17.70;;;;;;6140002;28;20031;-70
2022/06/19 17:33:34;;;;;;;8.98;2.88;;;40.00;17.90;;;;;;6169030;28;20026;-70
2022/06/19 17:36:38;;;;;;;10.20;2.88;;;39.80;18.10;;;;;;6170754;28;20050;-69
2022/06/19 17:39:39;;;;;;;16.23;2.95;;;39.60;18.20;;;;;;6154563;28;20031;-70
2022/06/19 17:42:40;;;;;;;10.98;2.92;;;39.50;18.30;;;;;;6170496;28;20026;-70
2022/06/19 17:45:46;;;;;;;13.95;3.20;;;39.30;18.40;;;;;;6171398;28;20418;-70
2022/06/19 17:48:53;;;;;;;9.43;3.22;;;39.20;18.50;;;;;;6170316;28;20762;-69
2022/06/19 17:52:15;;;;;;;13.02;3.05;;;39.10;18.70;;;;;;6170796;28;20039;-70
2022/06/19 17:55:37;;;;;;;7.32;2.92;;;39.00;18.80;;;;;;6169546;28;20122;-70
2022/06/19 17:58:53;;;;;;;8.60;3.10;;;38.80;18.90;;;;;;6156049;28;20041;-70
2022/06/19 18:01:57;;;;;;;8.35;3.13;;;38.70;19.00;;;;;;6155164;28;20380;-71
2022/06/19 18:05:20;;;;;;;14.02;3.70;;;38.70;19.10;;;;;;6171177;28;20038;-69
2022/06/19 18:08:30;;;;;;;14.70;3.90;;;38.50;19.10;;;;;;6138626;28;20026;-70
2022/06/19 18:11:37;;;;;;;11.93;4.15;;;38.50;19.30;;;;;;6153479;28;20027;-72
2022/06/19 18:14:42;;;;;;;6.15;2.50;;;38.40;19.40;;;;;;6154674;28;20058;-69
2022/06/19 18:21:30;;;;;;;9.20;2.75;;;38.30;19.60;;;;;;6154443;28;20053;-69
2022/06/19 18:24:33;;;;;;;14.57;3.58;;;38.20;19.70;;;;;;6084645;29;20067;-70
2022/06/19 18:27:34;;;;;;;21.55;3.85;;;38.10;19.80;;;;;;6082367;29;20115;-70
2022/06/19 18:30:36;;;;;;;10.35;3.47;;;38.00;20.00;;;;;;6085452;29;20032;-70
2022/06/19 18:33:38;;;;;;;16.73;3.95;;;38.00;20.20;;;;;;6083844;29;20035;-70
2022/06/19 18:36:40;;;;;;;13.90;3.45;;;37.80;20.20;;;;;;6098006;29;20063;-70
2022/06/19 18:39:41;;;;;;;7.10;2.95;;;37.80;20.30;;;;;;6095320;29;20028;-70
2022/06/19 18:42:42;;;;;;;12.02;3.00;;;37.70;20.50;;;;;;6081034;29;20112;-70
2022/06/19 18:45:45;;;;;;;8.57;2.78;;;37.60;20.60;;;;;;6079739;29;20052;-70
2022/06/19 18:48:46;;;;;;;15.80;3.38;;;37.50;20.70;;;;;;6098127;29;20046;-71
2022/06/19 18:51:50;;;;;;;10.32;3.33;;;37.40;20.80;;;;;;6098223;29;20038;-70
2022/06/19 18:54:52;;;;;;;10.77;3.13;;;37.30;20.90;;;;;;6096107;29;20040;-71
2022/06/19 18:57:55;;;;;;;11.23;3.55;;;37.20;21.00;;;;;;6081126;29;20123;-71
2022/06/19 19:00:58;;;;;;;11.77;3.22;;;37.10;21.10;;;;;;6113895;28;20494;-70
2022/06/19 19:03:59;;;;;;;7.07;2.75;;;37.00;21.10;;;;;;6173971;28;20498;-70
2022/06/19 19:07:02;;;;;;;15.20;3.03;;;37.00;21.20;;;;;;6174980;28;20468;-71
2022/06/19 19:10:04;;;;;;;6.32;2.80;;;36.90;21.20;;;;;;6174075;28;20113;-71
2022/06/19 19:13:18;;;;;;;12.75;3.22;;;36.80;21.10;;;;;;6142486;28;20042;-70
2022/06/19 19:16:27;;;;;;;11.50;3.28;;;36.70;21.20;;;;;;6173886;28;20119;-71
2022/06/19 19:19:32;;;;;;;9.20;3.28;;;36.60;21.20;;;;;;6157756;28;20031;-71
2022/06/19 19:22:36;;;;;;;9.43;2.80;;;36.50;21.30;;;;;;6154359;28;20042;-69
2022/06/19 19:25:57;;;;;;;8.45;2.60;;;36.40;21.30;;;;;;6176931;28;20035;-71
2022/06/19 19:29:01;;;;;;;12.55;3.20;;;36.40;21.50;;;;;;6178001;28;20432;-71
2022/06/19 19:32:05;;;;;;;11.38;3.33;;;36.30;21.50;;;;;;6156393;28;20038;-72
2022/06/19 19:35:12;;;;;;;13.38;3.70;;;36.20;21.50;;;;;;6175287;28;20460;-75
2022/06/19 19:38:28;;;;;;;12.13;4.05;;;36.20;21.60;;;;;;6159015;28;20201;-72
2022/06/19 19:41:29;;;;;;;12.55;3.83;;;36.00;21.60;;;;;;6160381;28;20475;-71
2022/06/19 19:44:30;;;;;;;11.23;3.95;;;36.00;21.70;;;;;;6176784;28;20042;-72
2022/06/19 19:47:32;;;;;;;20.65;7.00;;;35.80;21.70;;;;;;6177477;28;20031;-71
2022/06/19 19:50:33;;;;;;;12.20;4.53;;;35.80;21.70;;;;;;6176718;28;20039;-70
2022/06/19 19:53:37;;;;;;;9.63;4.55;;;35.70;21.70;;;;;;6160041;28;20154;-72
2022/06/19 19:56:39;;;;;;;8.93;4.53;;;35.70;21.90;;;;;;6176179;28;20037;-74
2022/06/19 19:59:41;;;;;;;13.35;4.90;;;35.60;21.80;;;;;;6174027;28;20113;-72
2022/06/19 20:02:42;;;;;;;10.80;5.38;;;35.60;21.90;;;;;;6153874;28;20113;-71
2022/06/19 20:12:25;;;;;;;11.30;5.15;;;35.40;21.90;;;;;;6174955;28;20460;-69
2022/06/19 20:15:27;;;;;;;14.80;5.18;;;35.40;21.90;;;;;;6176077;28;20049;-70
2022/06/19 20:18:27;;;;;;;10.90;5.72;;;35.30;21.90;;;;;;6174059;28;20023;-69
2022/06/19 20:21:42;;;;;;;12.18;5.63;;;35.30;22.00;;;;;;6142053;28;20027;-69
2022/06/19 20:24:57;;;;;;;12.13;5.13;;;35.20;22.20;;;;;;6147593;28;20023;-68
2022/06/19 20:28:17;;;;;;;17.73;4.78;;;35.20;22.10;;;;;;6176215;28;20403;-69
2022/06/19 20:31:19;;;;;;;10.75;4.63;;;35.10;22.10;;;;;;6175361;28;20047;-69
2022/06/19 20:34:30;;;;;;;10.70;5.03;;;35.10;22.10;;;;;;6174643;28;20482;-69
2022/06/19 20:37:32;;;;;;;11.52;4.80;;;35.10;22.10;;;;;;6158786;28;20027;-70
2022/06/19 20:40:34;;;;;;;17.15;5.20;;;34.90;22.10;;;;;;6170796;28;20071;-70
2022/06/19 20:43:35;;;;;;;13.55;4.93;;;34.90;22.60;;;;;;6143921;28;20026;-70
2022/06/19 20:46:38;;;;;;;20.88;5.45;;;34.90;22.20;;;;;;6154228;28;20042;-70
2022/06/19 20:49:43;;;;;;;16.50;4.93;;;34.80;22.20;;;;;;6159023;28;20033;-70
2022/06/19 20:52:44;;;;;;;13.70;4.85;;;34.70;22.30;;;;;;6167626;28;20049;-69
2022/06/19 20:55:45;;;;;;;11.50;4.50;;;34.70;22.30;;;;;;6151820;28;20030;-69
2022/06/19 20:58:46;;;;;;;16.02;4.78;;;34.60;22.30;;;;;;6157760;28;20030;-70
2022/06/19 21:01:47;;;;;;;16.35;4.35;;;34.60;22.30;;;;;;6145562;28;20038;-70
2022/06/19 21:04:48;;;;;;;16.40;4.10;;;34.50;22.40;;;;;;6175331;28;20045;-71
2022/06/19 21:07:52;;;;;;;13.77;4.85;;;34.40;22.40;;;;;;6158523;28;20440;-69
2022/06/19 21:10:56;;;;;;;20.45;4.55;;;34.40;22.50;;;;;;6158388;28;20033;-69
2022/06/19 21:13:57;;;;;;;11.05;4.60;;;34.30;22.50;;;;;;6174239;28;20372;-69
2022/06/19 21:16:58;;;;;;;9.07;3.90;;;34.30;22.60;;;;;;6175558;28;20105;-69
2022/06/19 21:19:58;;;;;;;8.63;3.72;;;34.30;22.60;;;;;;6163048;28;20035;-70
2022/06/19 21:23:00;;;;;;;14.77;4.25;;;34.20;22.70;;;;;;6175201;28;20432;-69
2022/06/19 21:26:01;;;;;;;9.45;4.25;;;34.10;22.70;;;;;;6174521;28;20070;-70
2022/06/19 21:29:09;;;;;;;14.57;4.20;;;34.10;22.70;;;;;;6175103;28;20023;-69
2022/06/19 21:32:14;;;;;;;;;;;34.10;22.70;;;;;;6175666;28;20118;-69
2022/06/19 21:35:16;;;;;;;9.75;3.97;;;34.10;22.80;;;;;;6174964;28;19930;-69
2022/06/19 21:38:19;;;;;;;21.50;4.18;;;34.00;22.60;;;;;;6157354;28;20026;-69
2022/06/19 21:41:29;;;;;;;11.90;4.18;;;33.90;22.70;;;;;;6174939;28;20042;-69
2022/06/19 21:44:30;;;;;;;17.08;3.78;;;33.90;22.70;;;;;;6155514;28;20316;-69
2022/06/19 21:47:30;;;;;;;15.82;3.95;;;33.80;22.70;;;;;;6161997;28;20060;-69
2022/06/19 21:50:33;;;;;;;10.05;4.38;;;33.80;22.60;;;;;;6145557;28;20035;-68
2022/06/19 21:53:35;;;;;;;11.95;3.50;;;33.80;22.60;;;;;;6145976;28;20027;-69
2022/06/19 21:56:36;;;;;;;19.08;3.63;;;33.80;22.60;;;;;;6174635;28;20134;-69
2022/06/19 21:59:37;;;;;;;13.13;3.50;;;33.70;22.50;;;;;;6136841;28;20031;-69
2022/06/19 22:02:39;;;;;;;14.88;3.75;;;33.70;22.60;;;;;;6179555;28;20372;-69
2022/06/19 22:05:40;;;;;;;16.77;2.58;;;33.60;22.50;;;;;;6179179;28;20058;-69
2022/06/19 22:08:41;;;;;;;8.68;2.75;;;33.60;22.50;;;;;;6161675;28;20360;-70
2022/06/19 22:15:01;;;;;;;15.23;2.97;;;33.60;22.50;;;;;;6179244;28;20026;-70
2022/06/19 22:18:04;;;;;;;6.88;2.72;;;33.50;23.50;;;;;;6161655;28;20119;-70
2022/06/19 22:21:09;;;;;;;6.28;2.83;;;33.30;24.40;;;;;;6178818;28;20030;-70
2022/06/19 22:24:18;;;;;;;8.50;2.38;;;33.00;25.00;;;;;;6149252;28;20051;-70
2022/06/19 22:27:25;;;;;;;11.43;2.90;;;32.80;25.60;;;;;;6161135;28;20546;-68
2022/06/19 22:30:30;;;;;;;8.20;2.65;;;32.60;26.10;;;;;;6178363;28;20500;-68
2022/06/19 22:33:31;;;;;;;6.28;2.42;;;32.40;26.50;;;;;;6177806;28;20114;-70
2022/06/19 22:36:33;;;;;;;9.50;2.38;;;32.20;27.10;;;;;;6155948;28;20047;-68
2022/06/19 22:39:36;;;;;;;5.90;2.35;;;31.90;27.40;;;;;;6178259;28;20026;-69
2022/06/19 22:42:39;;;;;;;5.93;2.22;;;31.70;27.90;;;;;;6178780;28;20027;-68
2022/06/19 22:45:40;;;;;;;9.95;2.88;;;31.50;28.10;;;;;;6161595;28;20027;-68
2022/06/19 22:48:40;;;;;;;10.52;2.78;;;31.30;28.30;;;;;;6159934;28;20034;-68
2022/06/19 22:51:42;;;;;;;10.45;2.38;;;31.20;28.20;;;;;;6148542;28;20115;-69
2022/06/19 22:54:43;;;;;;;5.00;1.90;;;31.20;28.10;;;;;;6161111;28;20420;-69
2022/06/19 22:57:51;;;;;;;8.48;2.10;;;31.10;27.60;;;;;;6161238;28;20109;-69
2022/06/19 23:04:18;;;;;;;5.63;2.47;;;31.40;26.60;;;;;;6160286;28;20031;-69
2022/06/19 23:07:19;;;;;;;5.68;2.28;;;31.40;27.20;;;;;;6176623;28;20026;-70
2022/06/19 23:10:20;;;;;;;9.98;2.47;;;31.30;27.50;;;;;;6177190;28;20034;-69
2022/06/19 23:13:22;;;;;;;3.15;2.10;;;31.20;27.90;;;;;;6179596;28;20387;-69
2022/06/19 23:16:27;;;;;;;11.13;2.67;;;31.00;28.30;;;;;;6178075;28;20049;-69
2022/06/19 23:19:34;;;;;;;5.38;1.90;;;30.90;28.70;;;;;;6178186;28;20050;-70
2022/06/19 23:22:37;;;;;;;8.40;2.10;;;30.70;29.10;;;;;;6177656;28;20081;-69
2022/06/19 23:25:43;;;;;;;16.42;2.10;;;30.60;29.10;;;;;;6177685;28;20138;-70
2022/06/19 23:28:47;;;;;;;25.38;3.45;;;30.50;28.50;;;;;;6177546;28;20057;-69
2022/06/19 23:31:48;;;;;;;9.52;2.53;;;30.60;27.50;;;;;;6177783;28;20062;-69
2022/06/19 23:34:49;;;;;;;4.32;2.28;;;30.80;27.60;;;;;;6177393;28;20046;-68
2022/06/19 23:37:54;;;;;;;8.80;2.40;;;30.80;28.10;;;;;;6177588;28;20041;-68
2022/06/19 23:41:04;;;;;;;5.50;2.05;;;30.80;28.70;;;;;;6184417;28;20034;-68
2022/06/19 23:44:07;;;;;;;7.03;2.58;;;30.60;29.20;;;;;;6160157;28;20030;-69
2022/06/19 23:47:11;;;;;;;10.75;2.17;;;30.40;29.60;;;;;;6178552;28;20050;-69
2022/06/19 23:50:19;;;;;;;4.47;2.15;;;30.20;30.00;;;;;;6177028;28;20165;-69
2022/06/19 23:53:20;;;;;;;4.85;2.25;;;29.90;30.20;;;;;;6152834;28;20436;-69
2022/06/19 23:56:22;;;;;;;5.38;2.70;;;29.80;30.60;;;;;;6179830;28;20030;-69
2022/06/19 23:59:23;;;;;;;7.85;2.13;;;29.70;30.90;;;;;;6176890;28;20117;-69
